This is the latest recevied weather packets stored in our database for station/object EA1DB-1. If no packets are shown the sender has not sent any weather packets the latest 10 day(s).
| Time | Temp. | Humidity | Pressure | Rain* | Wind** | Luminosity | Snow |
|---|---|---|---|---|---|---|---|
| 1777491970 | 17.22° C | 67% | 1005 hPa | 0 mm | - | - | - |
| 1777490769 | 17.22° C | 67% | 1004.9 hPa | 0 mm | - | - | - |
| 1777487794 | 17.22° C | 67% | 1004.1 hPa | 0 mm | - | - | - |
| 1777486594 | 17.22° C | 68% | 1004 hPa | 0 mm | - | - | - |
| 1777482994 | 17.22° C | 69% | 1003.6 hPa | 0 mm | - | - | - |
| 1777481794 | 17.22° C | 68% | 1003.7 hPa | 0 mm | - | - | - |
| 1777479394 | 17.78° C | 65% | 1003.2 hPa | 0 mm | - | - | - |
| 1777476390 | 18.33° C | 64% | 1003.1 hPa | 0 mm | - | - | - |
| 1777470994 | 18.33° C | 66% | 1002.4 hPa | 0 mm | - | - | - |
| 1777466193 | 18.89° C | 61% | 1002.4 hPa | 0 mm | - | - | - |
| 1777465570 | 18.89° C | 63% | 1002.2 hPa | 0 mm | - | - | - |
| 1777460770 | 18.33° C | 71% | 1002.2 hPa | 0 mm | - | - | - |
| 1777456594 | 17.22° C | 75% | 1002.1 hPa | 0 mm | - | - | - |
| 1777455970 | 16.67° C | 75% | 1002.1 hPa | 0 mm | - | - | - |
| 1777451665 | 16.11° C | 80% | 1002.5 hPa | 0 mm | - | - | - |
| 1777450881 | 15.56° C | 82% | 1002.5 hPa | 0 mm | - | - | - |
| 1777444305 | 15° C | 82% | 1002.2 hPa | 0 mm | - | - | - |
| 1777442481 | 15° C | 82% | 1001.8 hPa | 0 mm | - | - | - |
| 1777440706 | 15° C | 83% | 1001.4 hPa | 0 mm | - | - | - |
| 1777438305 | 15° C | 81% | 1001.5 hPa | 0 mm | - | - | - |
| 1777435905 | 15.56° C | 80% | 1001.6 hPa | 0 mm | - | - | - |
| 1777431105 | 15.56° C | 79% | 1002.2 hPa | 0 mm | - | - | - |
| 1777422081 | 16.11° C | 76% | 1003.3 hPa | 0 mm | - | - | - |
| 1777421505 | 16.11° C | 75% | 1003.3 hPa | 0 mm | - | - | - |
| 1777413721 | 17.22° C | 71% | 1003.7 hPa | 0 mm | - | - | - |
* Rain latest hour (hover to see other rain measurements)
** Current wind speed in m/s (hover to see current wind gust speed)